Time;durP1;ratioP1;P1;durP2;ratioP2;P2;SDS_P1;SDS_P2;PMS_P1;PMS_P2;Temp;Humidity;BMP_temperature;BMP_pressure;BME280_temperature;BME280_humidity;BME280_pressure;Samples;Min_cycle;Max_cycle;Signal;HPM_P1;HPM_P2
2022/01/31 00:02:11;;;;;;;28.30;18.65;;;;;;;;;;6222855;23;20012;-80
2022/01/31 00:04:37;;;;;;;29.02;17.83;;;;;;;;;;6223191;23;19992;-80
2022/01/31 00:07:04;;;;;;;40.35;16.05;;;;;;;;;;6249779;23;19992;-80
2022/01/31 00:09:30;;;;;;;30.60;16.70;;;;;;;;;;6248698;23;20041;-80
2022/01/31 00:12:08;;;;;;;22.55;13.05;;;;;;;;;;6222810;23;20125;-80
2022/01/31 00:14:42;;;;;;;24.10;14.05;;;;;;;;;;6250172;23;19996;-80
2022/01/31 00:17:09;;;;;;;23.75;13.48;;;;;;;;;;6248713;23;19988;-80
2022/01/31 00:19:36;;;;;;;23.85;12.77;;;;;;;;;;6249236;23;20038;-80
2022/01/31 00:22:06;;;;;;;28.90;15.38;;;;;;;;;;6224525;23;20011;-80
2022/01/31 00:24:33;;;;;;;21.98;12.55;;;;;;;;;;6226286;23;19992;-80
2022/01/31 00:34:47;;;;;;;28.00;15.13;;;;;;;;;;6228723;23;20369;-78
2022/01/31 00:37:13;;;;;;;28.38;15.48;;;;;;;;;;6249158;23;20023;-78
2022/01/31 00:39:39;;;;;;;26.35;14.88;;;;;;;;;;6251152;23;20038;-79
2022/01/31 00:42:07;;;;;;;27.95;14.73;;;;;;;;;;6251143;23;20018;-78
2022/01/31 00:44:51;;;;;;;29.75;15.88;;;;;;;;;;6222477;23;19998;-78
2022/01/31 00:47:26;;;;;;;35.15;18.98;;;;;;;;;;6251961;23;20032;-79
2022/01/31 00:50:02;;;;;;;39.47;20.88;;;;;;;;;;6223408;23;19988;-79
2022/01/31 00:52:28;;;;;;;40.75;21.77;;;;;;;;;;6222898;23;19995;-78
2022/01/31 00:54:54;;;;;;;48.85;21.17;;;;;;;;;;6250278;23;19994;-79
2022/01/31 00:57:20;;;;;;;58.13;27.08;;;;;;;;;;6250966;23;20071;-79
2022/01/31 00:59:50;;;;;;;69.25;29.80;;;;;;;;;;6249814;23;19992;-79
2022/01/31 01:07:12;;;;;;;54.15;26.05;;;;;;;;;;6219358;23;19916;-79
2022/01/31 01:09:38;;;;;;;51.03;26.80;;;;;;;;;;6250453;23;20346;-79
2022/01/31 01:12:04;;;;;;;58.42;27.30;;;;;;;;;;6223339;23;19999;-79
2022/01/31 01:14:30;;;;;;;55.33;28.65;;;;;;;;;;6248728;23;20051;-79
2022/01/31 01:27:39;;;;;;;69.00;34.60;;;;;;;;;;6080311;22;20012;-79
2022/01/31 01:30:06;;;;;;;72.70;34.30;;;;;;;;;;6193656;23;20033;-79
2022/01/31 01:32:40;;;;;;;78.25;34.45;;;;;;;;;;6197383;23;19997;-79
2022/01/31 01:35:07;;;;;;;74.30;38.13;;;;;;;;;;6194809;23;20201;-79
2022/01/31 01:37:33;;;;;;;70.57;31.63;;;;;;;;;;6212347;22;20019;-79
2022/01/31 01:39:59;;;;;;;77.13;35.28;;;;;;;;;;6251849;23;20003;-79
2022/01/31 01:42:25;;;;;;;72.85;36.60;;;;;;;;;;6227562;23;20011;-79
2022/01/31 01:44:52;;;;;;;80.38;35.15;;;;;;;;;;6257539;23;19993;-79
2022/01/31 01:47:19;;;;;;;75.50;35.70;;;;;;;;;;6228456;23;20019;-79
2022/01/31 01:49:46;;;;;;;84.05;38.83;;;;;;;;;;6254277;23;20015;-78
2022/01/31 01:52:12;;;;;;;69.40;37.05;;;;;;;;;;6253110;23;20417;-79
2022/01/31 01:54:38;;;;;;;78.95;39.25;;;;;;;;;;6197659;23;20004;-79
2022/01/31 01:57:05;;;;;;;93.28;39.17;;;;;;;;;;6250297;23;19996;-80
2022/01/31 01:59:35;;;;;;;93.07;39.10;;;;;;;;;;6252290;23;19995;-79
2022/01/31 02:02:02;;;;;;;87.15;37.95;;;;;;;;;;6199378;23;20008;-79
2022/01/31 02:04:29;;;;;;;103.32;42.22;;;;;;;;;;6222611;23;19996;-79
2022/01/31 02:06:55;;;;;;;97.07;43.08;;;;;;;;;;6250360;23;19992;-79
2022/01/31 02:09:23;;;;;;;91.68;40.20;;;;;;;;;;6252133;23;19988;-79
2022/01/31 02:11:49;;;;;;;93.25;43.33;;;;;;;;;;6225582;23;20386;-79
2022/01/31 02:14:16;;;;;;;95.45;37.33;;;;;;;;;;6250380;23;19992;-79
2022/01/31 02:16:42;;;;;;;87.38;37.00;;;;;;;;;;6257848;22;20420;-79
2022/01/31 02:19:23;;;;;;;97.68;39.33;;;;;;;;;;6249912;22;19984;-74
2022/01/31 02:22:27;;;;;;;72.95;31.73;;;;;;;;;;6182129;23;20020;-74
2022/01/31 02:25:10;;;;;;;80.35;34.63;;;;;;;;;;6132057;23;20009;-75
2022/01/31 02:28:43;;;;;;;74.97;30.17;;;;;;;;;;6211295;23;20112;-75
2022/01/31 02:32:05;;;;;;;66.97;30.70;;;;;;;;;;6212432;23;20295;-75
2022/01/31 02:34:46;;;;;;;87.03;31.02;;;;;;;;;;6134887;23;20046;-74
2022/01/31 02:37:22;;;;;;;65.72;27.35;;;;;;;;;;6120343;23;20363;-74
2022/01/31 02:40:22;;;;;;;53.15;27.10;;;;;;;;;;6139079;23;19992;-74
2022/01/31 02:43:27;;;;;;;72.75;27.88;;;;;;;;;;6103077;23;20121;-74
2022/01/31 02:48:36;;;;;;;45.60;21.30;;;;;;;;;;6205365;23;19915;-75
2022/01/31 02:51:21;;;;;;;64.43;28.08;;;;;;;;;;6176109;23;20000;-75
2022/01/31 02:54:07;;;;;;;53.15;24.13;;;;;;;;;;6235704;23;20040;-80
2022/01/31 02:56:33;;;;;;;64.32;25.38;;;;;;;;;;6252532;23;20003;-80
2022/01/31 02:58:59;;;;;;;64.88;26.85;;;;;;;;;;6249574;23;20008;-80
2022/01/31 03:01:25;;;;;;;66.10;26.83;;;;;;;;;;6223854;23;20019;-80
2022/01/31 03:03:51;;;;;;;67.35;31.08;;;;;;;;;;6251985;23;20047;-80
2022/01/31 03:06:18;;;;;;;69.57;29.90;;;;;;;;;;6249526;23;19996;-75
2022/01/31 03:08:44;;;;;;;75.75;27.48;;;;;;;;;;6248190;23;20319;-74
2022/01/31 03:11:10;;;;;;;57.92;28.38;;;;;;;;;;6249031;23;19992;-74
2022/01/31 03:13:36;;;;;;;61.05;23.42;;;;;;;;;;6249779;23;19993;-75
2022/01/31 03:16:02;;;;;;;68.00;28.20;;;;;;;;;;6224182;23;20050;-74
2022/01/31 03:18:31;;;;;;;62.30;25.40;;;;;;;;;;6196459;23;20223;-74
2022/01/31 03:20:57;;;;;;;66.93;27.40;;;;;;;;;;6247672;23;20053;-74
2022/01/31 03:23:24;;;;;;;67.65;26.67;;;;;;;;;;6195647;23;20058;-75
2022/01/31 03:25:50;;;;;;;76.00;32.88;;;;;;;;;;6196398;23;20023;-75
2022/01/31 03:28:16;;;;;;;90.18;33.17;;;;;;;;;;6220473;23;19991;-75
2022/01/31 03:30:43;;;;;;;70.95;30.13;;;;;;;;;;6248235;23;20139;-75
2022/01/31 03:33:09;;;;;;;77.05;32.03;;;;;;;;;;6247632;23;20023;-74
2022/01/31 03:35:35;;;;;;;78.95;30.60;;;;;;;;;;6248110;23;19992;-73
2022/01/31 03:38:01;;;;;;;64.57;29.98;;;;;;;;;;6220226;23;20397;-73
2022/01/31 03:40:27;;;;;;;72.20;32.28;;;;;;;;;;6247090;23;20075;-75
2022/01/31 03:42:53;;;;;;;66.25;32.70;;;;;;;;;;6221440;23;20007;-75
2022/01/31 03:45:19;;;;;;;78.47;37.55;;;;;;;;;;6246340;23;20080;-74
2022/01/31 03:47:47;;;;;;;78.03;38.00;;;;;;;;;;6232174;23;20512;-74
2022/01/31 03:50:14;;;;;;;83.95;38.20;;;;;;;;;;6252848;23;20040;-75
2022/01/31 03:52:42;;;;;;;74.70;33.67;;;;;;;;;;6225700;23;19996;-76
2022/01/31 03:55:09;;;;;;;71.93;33.00;;;;;;;;;;6249604;23;19992;-76
2022/01/31 03:57:35;;;;;;;63.50;28.85;;;;;;;;;;6251371;23;19996;-73
2022/01/31 04:00:04;;;;;;;87.32;36.60;;;;;;;;;;6223385;23;20391;-75
2022/01/31 04:02:34;;;;;;;88.68;39.08;;;;;;;;;;6222048;23;20008;-75
2022/01/31 04:05:00;;;;;;;94.15;40.42;;;;;;;;;;6221645;23;20025;-74
2022/01/31 04:07:26;;;;;;;89.40;42.08;;;;;;;;;;6249166;23;20004;-74
2022/01/31 04:09:53;;;;;;;94.38;44.13;;;;;;;;;;6222680;23;20537;-74
2022/01/31 04:12:19;;;;;;;83.68;35.17;;;;;;;;;;6249617;23;19996;-75
2022/01/31 04:14:45;;;;;;;96.00;46.40;;;;;;;;;;6250967;23;20012;-75
2022/01/31 04:17:11;;;;;;;85.80;37.78;;;;;;;;;;6252747;23;20022;-74
2022/01/31 04:19:38;;;;;;;93.97;40.85;;;;;;;;;;6222989;23;20015;-74
2022/01/31 04:22:09;;;;;;;93.43;39.42;;;;;;;;;;6224844;23;20014;-74
2022/01/31 04:24:35;;;;;;;;;;;;;;;;;;6223212;23;20287;-74
2022/01/31 04:27:06;;;;;;;103.05;47.42;;;;;;;;;;6220661;23;19930;-74
2022/01/31 04:29:35;;;;;;;112.43;49.60;;;;;;;;;;6219963;23;19996;-75
2022/01/31 04:32:02;;;;;;;110.30;48.07;;;;;;;;;;6195578;23;20015;-75
2022/01/31 04:34:30;;;;;;;104.20;42.83;;;;;;;;;;6197896;23;20532;-74
2022/01/31 04:36:57;;;;;;;113.60;48.40;;;;;;;;;;6219715;23;20026;-74
2022/01/31 04:39:24;;;;;;;116.70;52.08;;;;;;;;;;6246735;23;19992;-75
2022/01/31 04:41:50;;;;;;;111.30;50.58;;;;;;;;;;6220181;23;20008;-74
2022/01/31 04:44:18;;;;;;;110.78;44.63;;;;;;;;;;6246678;23;20426;-74
2022/01/31 04:46:49;;;;;;;102.50;46.42;;;;;;;;;;6247952;23;19996;-74
2022/01/31 04:49:16;;;;;;;116.70;48.75;;;;;;;;;;6246743;23;19992;-74
2022/01/31 04:51:42;;;;;;;117.38;51.97;;;;;;;;;;6222256;23;20012;-74
2022/01/31 04:54:08;;;;;;;124.65;51.58;;;;;;;;;;6249997;23;20382;-76
2022/01/31 04:56:36;;;;;;;128.05;54.90;;;;;;;;;;6221587;23;20086;-75
2022/01/31 04:59:06;;;;;;;122.03;52.50;;;;;;;;;;6196592;23;19996;-76
2022/01/31 05:01:32;;;;;;;131.00;53.27;;;;;;;;;;6196476;23;20092;-74
2022/01/31 05:03:58;;;;;;;122.95;55.13;;;;;;;;;;6248120;23;20091;-74
2022/01/31 05:06:37;;;;;;;146.43;63.90;;;;;;;;;;6247688;23;20143;-74
2022/01/31 05:09:04;;;;;;;137.30;55.58;;;;;;;;;;6219873;23;19997;-74
2022/01/31 05:11:33;;;;;;;126.22;58.28;;;;;;;;;;6247016;23;20003;-73
2022/01/31 05:13:59;;;;;;;109.97;53.78;;;;;;;;;;6222538;23;19996;-75
2022/01/31 05:16:25;;;;;;;131.73;59.13;;;;;;;;;;6220414;23;20070;-74
2022/01/31 05:18:51;;;;;;;105.60;53.03;;;;;;;;;;6249372;23;20054;-74
2022/01/31 05:21:17;;;;;;;124.30;53.78;;;;;;;;;;6222306;23;20067;-74
2022/01/31 05:23:46;;;;;;;120.55;52.72;;;;;;;;;;6251045;23;20331;-75
2022/01/31 05:26:13;;;;;;;129.82;58.55;;;;;;;;;;6249042;23;19992;-74
2022/01/31 05:28:39;;;;;;;132.73;56.92;;;;;;;;;;6225450;23;20003;-74
2022/01/31 05:31:07;;;;;;;128.68;54.42;;;;;;;;;;6202850;23;20003;-74
2022/01/31 05:33:37;;;;;;;126.97;54.53;;;;;;;;;;6203610;23;20306;-75
2022/01/31 05:36:07;;;;;;;140.18;60.53;;;;;;;;;;6231198;23;20023;-75
2022/01/31 05:38:37;;;;;;;130.93;56.80;;;;;;;;;;6253666;23;20014;-75
2022/01/31 05:41:06;;;;;;;131.75;57.75;;;;;;;;;;6256446;23;19992;-74
2022/01/31 05:43:33;;;;;;;132.48;55.80;;;;;;;;;;6252924;23;20381;-74
2022/01/31 05:45:59;;;;;;;131.90;53.60;;;;;;;;;;6227809;23;20103;-75
2022/01/31 05:48:25;;;;;;;157.73;61.40;;;;;;;;;;6249015;23;20335;-74
2022/01/31 05:50:52;;;;;;;123.75;52.58;;;;;;;;;;6197347;23;19996;-73
2022/01/31 05:53:30;;;;;;;;;;;;;;;;;;;;;
2022/01/31 05:55:57;;;;;;;136.02;60.58;;;;;;;;;;6247068;23;20000;-75
2022/01/31 05:58:23;;;;;;;123.38;53.08;;;;;;;;;;6244095;23;19992;-74
2022/01/31 06:00:50;;;;;;;114.25;42.80;;;;;;;;;;6243390;23;19996;-74
2022/01/31 06:03:16;;;;;;;127.70;55.40;;;;;;;;;;6221378;23;20004;-74
2022/01/31 06:05:42;;;;;;;128.13;52.80;;;;;;;;;;6221827;23;20031;-75
2022/01/31 06:08:09;;;;;;;149.00;70.47;;;;;;;;;;6246843;23;20008;-75
2022/01/31 06:10:41;;;;;;;145.95;60.60;;;;;;;;;;6196185;23;20000;-75
2022/01/31 06:13:08;;;;;;;156.32;65.63;;;;;;;;;;6248549;23;20041;-76
2022/01/31 06:15:34;;;;;;;151.88;59.88;;;;;;;;;;6221056;23;20028;-75
2022/01/31 06:18:00;;;;;;;139.18;61.95;;;;;;;;;;6224469;23;20007;-75
2022/01/31 06:20:26;;;;;;;138.38;63.50;;;;;;;;;;6221112;23;19996;-76
2022/01/31 06:22:53;;;;;;;142.68;62.38;;;;;;;;;;6248635;23;20004;-76
2022/01/31 06:25:20;;;;;;;129.55;58.03;;;;;;;;;;6221748;23;20063;-75
2022/01/31 06:27:46;;;;;;;132.52;65.57;;;;;;;;;;6247213;23;20000;-76
2022/01/31 06:30:12;;;;;;;149.30;66.00;;;;;;;;;;6220107;23;20337;-74
2022/01/31 06:32:39;;;;;;;133.18;66.38;;;;;;;;;;6220364;23;19996;-77
2022/01/31 06:35:06;;;;;;;147.60;66.65;;;;;;;;;;6247349;23;19993;-77
2022/01/31 06:37:32;;;;;;;150.07;64.22;;;;;;;;;;6224185;23;19992;-76
2022/01/31 06:39:58;;;;;;;154.02;67.43;;;;;;;;;;6198382;23;20004;-75
2022/01/31 06:42:25;;;;;;;156.20;66.28;;;;;;;;;;6251505;23;20004;-76
2022/01/31 06:44:51;;;;;;;159.82;64.30;;;;;;;;;;6197971;23;19997;-77
2022/01/31 06:47:19;;;;;;;153.70;64.22;;;;;;;;;;6251962;23;20387;-75
2022/01/31 06:49:46;;;;;;;155.70;63.50;;;;;;;;;;6251064;23;20310;-76
2022/01/31 06:52:12;;;;;;;153.32;66.38;;;;;;;;;;6226711;23;19996;-75
2022/01/31 06:54:38;;;;;;;154.65;64.85;;;;;;;;;;6253176;23;20343;-73
2022/01/31 06:57:05;;;;;;;158.40;68.70;;;;;;;;;;6251429;23;19992;-77
2022/01/31 06:59:31;;;;;;;159.07;71.30;;;;;;;;;;6198452;23;20433;-75
2022/01/31 07:01:58;;;;;;;166.98;69.97;;;;;;;;;;6248210;23;20000;-77
2022/01/31 07:04:24;;;;;;;188.32;70.22;;;;;;;;;;6197482;23;19993;-76
2022/01/31 07:06:50;;;;;;;152.68;65.00;;;;;;;;;;6222143;23;20008;-76
2022/01/31 07:09:17;;;;;;;161.70;73.85;;;;;;;;;;6248188;23;20002;-78
2022/01/31 07:11:44;;;;;;;168.32;75.35;;;;;;;;;;6223977;23;20000;-75
2022/01/31 07:16:55;;;;;;;157.73;70.75;;;;;;;;;;6248562;23;20078;-75
2022/01/31 07:19:37;;;;;;;182.82;74.60;;;;;;;;;;6197524;23;20306;-76
2022/01/31 07:22:10;;;;;;;165.23;70.95;;;;;;;;;;6194319;23;20004;-75
2022/01/31 07:27:06;;;;;;;166.35;70.75;;;;;;;;;;6218651;23;19996;-76
2022/01/31 07:29:43;;;;;;;153.35;72.78;;;;;;;;;;6189831;23;20020;-76
2022/01/31 07:32:52;;;;;;;148.90;65.78;;;;;;;;;;6187333;23;20028;-75
2022/01/31 07:35:26;;;;;;;142.13;63.05;;;;;;;;;;6195667;23;20321;-77
2022/01/31 07:37:54;;;;;;;154.63;64.68;;;;;;;;;;6193281;23;20000;-75
2022/01/31 07:40:20;;;;;;;136.88;64.70;;;;;;;;;;6195953;23;20039;-75
2022/01/31 07:42:46;;;;;;;156.45;75.10;;;;;;;;;;6220708;23;20004;-75
2022/01/31 07:45:13;;;;;;;137.02;63.63;;;;;;;;;;6247870;23;19992;-75
2022/01/31 07:47:39;;;;;;;136.05;64.50;;;;;;;;;;6221416;23;20023;-75
2022/01/31 07:50:06;;;;;;;156.50;72.00;;;;;;;;;;6221841;23;19992;-76
2022/01/31 07:52:32;;;;;;;157.20;69.03;;;;;;;;;;6196501;23;20000;-75
2022/01/31 07:54:58;;;;;;;156.32;71.20;;;;;;;;;;6247714;23;19988;-76
2022/01/31 07:57:25;;;;;;;150.60;70.55;;;;;;;;;;6222428;23;20000;-75
2022/01/31 07:59:52;;;;;;;146.38;69.38;;;;;;;;;;6196553;23;20000;-75
2022/01/31 08:02:20;;;;;;;133.05;68.30;;;;;;;;;;6193349;23;20070;-75
2022/01/31 08:04:48;;;;;;;161.80;71.18;;;;;;;;;;6221799;23;20007;-75
2022/01/31 08:07:16;;;;;;;155.63;74.75;;;;;;;;;;6196216;23;20316;-77
2022/01/31 08:09:49;;;;;;;155.27;74.35;;;;;;;;;;6195836;23;20015;-76
2022/01/31 08:12:48;;;;;;;150.90;71.72;;;;;;;;;;6219967;23;20129;-75
2022/01/31 08:16:00;;;;;;;160.52;74.45;;;;;;;;;;6207378;23;19996;-76
2022/01/31 08:18:27;;;;;;;144.05;71.72;;;;;;;;;;6195644;23;20461;-76
2022/01/31 08:20:53;;;;;;;136.07;61.75;;;;;;;;;;6194930;23;19992;-75
2022/01/31 08:23:20;;;;;;;142.18;72.10;;;;;;;;;;6197149;23;20005;-75
2022/01/31 08:25:49;;;;;;;146.98;67.10;;;;;;;;;;6199498;23;20079;-75
2022/01/31 08:28:16;;;;;;;154.35;75.30;;;;;;;;;;6248580;23;20003;-74
2022/01/31 08:30:52;;;;;;;146.73;69.40;;;;;;;;;;6225948;23;20447;-75
2022/01/31 08:36:11;;;;;;;137.90;64.25;;;;;;;;;;6173849;23;19996;-77
2022/01/31 08:38:39;;;;;;;130.18;65.35;;;;;;;;;;6196179;23;20003;-76
2022/01/31 08:41:05;;;;;;;129.75;66.40;;;;;;;;;;6221314;23;20024;-76
2022/01/31 08:43:33;;;;;;;131.15;66.75;;;;;;;;;;6195381;23;20028;-75
2022/01/31 08:45:59;;;;;;;130.10;64.07;;;;;;;;;;6196522;23;20097;-76
2022/01/31 08:48:26;;;;;;;121.75;64.07;;;;;;;;;;6194959;23;19996;-75
2022/01/31 08:50:54;;;;;;;120.38;57.40;;;;;;;;;;6194952;23;19996;-77
2022/01/31 08:53:20;;;;;;;134.80;64.22;;;;;;;;;;6195379;23;19997;-76
2022/01/31 08:55:51;;;;;;;126.20;66.28;;;;;;;;;;6214751;23;20054;-76
2022/01/31 08:58:22;;;;;;;121.03;62.28;;;;;;;;;;6193512;23;20000;-76
2022/01/31 09:00:57;;;;;;;152.45;71.63;;;;;;;;;;6220772;23;20015;-76
2022/01/31 09:03:44;;;;;;;131.65;58.80;;;;;;;;;;6195227;23;20074;-76
2022/01/31 09:06:12;;;;;;;144.00;68.10;;;;;;;;;;6221500;23;20020;-75
2022/01/31 09:08:39;;;;;;;134.20;69.97;;;;;;;;;;6195464;23;20056;-75
2022/01/31 09:11:05;;;;;;;121.28;51.72;;;;;;;;;;6196029;23;20029;-76
2022/01/31 09:13:32;;;;;;;144.65;62.20;;;;;;;;;;6193503;23;20004;-76
2022/01/31 09:15:59;;;;;;;136.85;61.35;;;;;;;;;;6195790;23;20452;-75
2022/01/31 09:18:26;;;;;;;149.25;65.07;;;;;;;;;;6245816;23;20035;-76
2022/01/31 09:20:52;;;;;;;161.52;77.03;;;;;;;;;;6221251;23;20000;-75
2022/01/31 09:23:18;;;;;;;146.00;75.20;;;;;;;;;;6196218;23;20394;-76
2022/01/31 09:25:45;;;;;;;163.32;79.80;;;;;;;;;;6221145;23;19996;-75
2022/01/31 09:28:12;;;;;;;140.52;71.07;;;;;;;;;;6248378;23;19996;-76
2022/01/31 09:30:39;;;;;;;163.48;79.53;;;;;;;;;;6248526;23;20011;-76
2022/01/31 09:33:05;;;;;;;152.60;75.88;;;;;;;;;;6221287;23;20008;-76
2022/01/31 09:35:33;;;;;;;170.90;79.78;;;;;;;;;;6191447;23;20507;-76
2022/01/31 09:38:00;;;;;;;143.27;74.20;;;;;;;;;;6220058;23;19988;-76
2022/01/31 09:40:26;;;;;;;153.27;75.72;;;;;;;;;;6221455;23;19996;-75
2022/01/31 09:43:51;;;;;;;141.77;71.40;;;;;;;;;;6196732;23;20008;-76
2022/01/31 09:48:39;;;;;;;136.02;59.95;;;;;;;;;;6248067;23;20011;-76
2022/01/31 09:51:05;;;;;;;130.13;65.47;;;;;;;;;;6193803;23;20045;-76
2022/01/31 09:53:33;;;;;;;139.80;65.05;;;;;;;;;;6247648;23;19993;-76
2022/01/31 09:56:00;;;;;;;135.73;61.53;;;;;;;;;;6247940;23;20310;-76
2022/01/31 09:58:29;;;;;;;146.18;62.65;;;;;;;;;;6196178;23;20007;-75
2022/01/31 10:01:04;;;;;;;133.95;65.63;;;;;;;;;;6196561;23;20345;-75
2022/01/31 10:03:31;;;;;;;137.25;67.40;;;;;;;;;;6196750;23;20018;-75
2022/01/31 10:05:57;;;;;;;123.95;64.05;;;;;;;;;;6196227;23;20002;-75
2022/01/31 10:08:28;;;;;;;119.75;65.30;;;;;;;;;;6195621;23;20047;-76
2022/01/31 10:11:00;;;;;;;125.32;64.97;;;;;;;;;;6196187;23;20004;-75
2022/01/31 10:18:59;;;;;;;103.47;53.53;;;;;;;;;;6221084;23;20000;-76
2022/01/31 10:21:25;;;;;;;100.95;54.03;;;;;;;;;;6192850;23;20066;-76
2022/01/31 10:23:51;;;;;;;107.25;57.17;;;;;;;;;;6195956;23;20004;-75
2022/01/31 10:26:30;;;;;;;121.78;57.70;;;;;;;;;;6246829;23;19988;-76
2022/01/31 10:29:11;;;;;;;115.55;50.92;;;;;;;;;;6222156;23;20398;-75
2022/01/31 10:31:38;;;;;;;119.20;55.58;;;;;;;;;;6220679;22;19999;-75
2022/01/31 10:34:21;;;;;;;125.57;56.65;;;;;;;;;;6195732;23;20001;-76
2022/01/31 10:36:47;;;;;;;123.25;57.20;;;;;;;;;;6192316;23;20000;-76
2022/01/31 10:43:12;;;;;;;126.80;62.45;;;;;;;;;;6220582;23;20071;-75
2022/01/31 10:55:33;;;;;;;115.70;57.92;;;;;;;;;;6216796;23;20051;-76
2022/01/31 10:58:06;;;;;;;109.28;52.97;;;;;;;;;;6173598;23;20387;-80
2022/01/31 11:00:42;;;;;;;121.55;60.13;;;;;;;;;;6250099;23;19992;-80
2022/01/31 11:03:29;;;;;;;121.35;56.95;;;;;;;;;;6197767;23;20032;-80
2022/01/31 11:05:55;;;;;;;107.57;51.92;;;;;;;;;;6221516;23;20357;-80
2022/01/31 11:08:21;;;;;;;115.95;58.65;;;;;;;;;;6221355;23;20314;-80
2022/01/31 11:10:48;;;;;;;114.32;56.38;;;;;;;;;;6247668;23;19996;-80
2022/01/31 11:13:16;;;;;;;111.00;57.13;;;;;;;;;;6226763;23;20003;-80
2022/01/31 11:15:43;;;;;;;106.63;53.88;;;;;;;;;;6252136;23;19992;-80
2022/01/31 11:18:10;;;;;;;107.97;56.33;;;;;;;;;;6199411;23;19996;-80
2022/01/31 11:20:40;;;;;;;108.47;54.67;;;;;;;;;;6250180;23;19992;-80
2022/01/31 11:23:06;;;;;;;108.63;53.70;;;;;;;;;;6250400;23;20424;-80
2022/01/31 11:25:33;;;;;;;108.47;53.30;;;;;;;;;;6250267;23;20007;-80
2022/01/31 11:28:02;;;;;;;107.20;51.80;;;;;;;;;;6247720;23;19992;-80
2022/01/31 11:30:29;;;;;;;107.20;52.83;;;;;;;;;;6199196;23;20306;-80
2022/01/31 11:32:55;;;;;;;112.95;56.13;;;;;;;;;;6212705;23;20039;-80
2022/01/31 11:35:22;;;;;;;102.65;51.85;;;;;;;;;;6250228;23;20000;-80
2022/01/31 11:37:48;;;;;;;110.05;53.83;;;;;;;;;;6222641;23;19996;-80
2022/01/31 11:40:15;;;;;;;95.10;51.58;;;;;;;;;;6249845;23;20390;-80
2022/01/31 11:42:42;;;;;;;99.57;52.42;;;;;;;;;;6248369;23;20018;-80
2022/01/31 11:45:16;;;;;;;92.50;51.00;;;;;;;;;;6248730;23;19993;-80
2022/01/31 11:47:49;;;;;;;106.35;52.83;;;;;;;;;;6247538;23;20363;-80
2022/01/31 11:50:16;;;;;;;120.60;53.10;;;;;;;;;;6223766;23;19996;-80
2022/01/31 11:52:42;;;;;;;110.15;53.78;;;;;;;;;;6224548;23;19994;-81
2022/01/31 11:55:08;;;;;;;111.93;54.90;;;;;;;;;;6225648;23;20023;-80
2022/01/31 11:57:36;;;;;;;105.47;53.80;;;;;;;;;;6224351;23;20303;-80
2022/01/31 12:00:11;;;;;;;117.05;54.83;;;;;;;;;;6200863;23;20000;-80
2022/01/31 12:02:47;;;;;;;101.68;51.63;;;;;;;;;;6250595;23;20420;-80
2022/01/31 12:05:16;;;;;;;102.85;55.25;;;;;;;;;;6222117;23;20180;-80
2022/01/31 12:07:47;;;;;;;104.75;53.33;;;;;;;;;;6218609;23;20008;-75
2022/01/31 12:10:56;;;;;;;103.80;50.00;;;;;;;;;;6168002;23;20016;-76
2022/01/31 12:13:57;;;;;;;113.55;56.65;;;;;;;;;;6198935;23;20025;-76
2022/01/31 12:19:29;;;;;;;122.60;60.08;;;;;;;;;;6207426;23;20398;-75
2022/01/31 12:25:03;;;;;;;109.47;55.53;;;;;;;;;;6196075;23;20411;-76
2022/01/31 12:27:59;;;;;;;103.47;53.65;;;;;;;;;;6199177;23;20012;-75
2022/01/31 12:31:05;;;;;;;109.95;55.85;;;;;;;;;;6169670;23;20087;-75
2022/01/31 12:33:47;;;;;;;111.88;54.28;;;;;;;;;;6192414;23;20007;-76
2022/01/31 12:36:36;;;;;;;118.28;56.60;;;;;;;;;;6191914;23;20071;-76
2022/01/31 12:39:05;;;;;;;;;;;;;;;;;;6189878;23;20035;-75
2022/01/31 12:42:00;;;;;;;112.15;56.83;;;;;;;;;;6192318;23;20081;-76
2022/01/31 12:44:53;;;;;;;88.10;45.55;;;;;;;;;;6160780;23;20000;-75
2022/01/31 12:47:25;;;;;;;90.13;45.22;;;;;;;;;;6161406;23;20008;-75
2022/01/31 12:50:11;;;;;;;100.15;47.58;;;;;;;;;;6245495;23;20004;-74
2022/01/31 12:52:42;;;;;;;90.70;46.80;;;;;;;;;;6185902;23;20063;-74
2022/01/31 12:55:10;;;;;;;98.68;47.45;;;;;;;;;;6194859;23;20000;-74
2022/01/31 13:01:10;;;;;;;93.60;49.08;;;;;;;;;;6017868;23;19992;-74
2022/01/31 13:03:39;;;;;;;100.22;54.75;;;;;;;;;;6215307;23;20007;-74
2022/01/31 13:06:24;;;;;;;109.28;56.65;;;;;;;;;;6162803;23;20147;-75
2022/01/31 13:08:57;;;;;;;98.00;54.25;;;;;;;;;;6185098;23;20004;-74
2022/01/31 13:11:57;;;;;;;117.45;59.50;;;;;;;;;;6044877;23;20004;-74
2022/01/31 13:14:52;;;;;;;112.90;59.38;;;;;;;;;;6216994;23;20047;-74
2022/01/31 13:17:29;;;;;;;112.43;58.22;;;;;;;;;;6191225;23;20011;-74
2022/01/31 13:20:28;;;;;;;126.28;63.88;;;;;;;;;;6173341;23;20000;-74
2022/01/31 13:23:32;;;;;;;125.93;63.15;;;;;;;;;;6158428;23;20462;-74
2022/01/31 13:26:19;;;;;;;116.63;58.75;;;;;;;;;;6125576;23;19993;-74
2022/01/31 13:29:37;;;;;;;124.00;55.97;;;;;;;;;;6123766;23;20016;-78
2022/01/31 13:32:28;;;;;;;112.97;59.85;;;;;;;;;;6222392;23;20402;-75
2022/01/31 13:35:26;;;;;;;121.70;60.33;;;;;;;;;;6099547;23;20039;-74
2022/01/31 13:38:21;;;;;;;116.97;60.22;;;;;;;;;;6163317;23;20370;-74
2022/01/31 13:40:53;;;;;;;112.85;60.67;;;;;;;;;;6193402;23;20392;-74
2022/01/31 13:43:26;;;;;;;109.32;57.75;;;;;;;;;;6168290;23;20008;-74
2022/01/31 13:48:58;;;;;;;115.47;67.43;;;;;;;;;;6206303;23;20204;-74
2022/01/31 13:51:32;;;;;;;121.45;58.78;;;;;;;;;;6190774;23;20007;-75
2022/01/31 13:54:12;;;;;;;129.13;67.28;;;;;;;;;;6190950;23;20418;-74
2022/01/31 13:56:54;;;;;;;127.25;63.00;;;;;;;;;;6220071;23;20039;-74
2022/01/31 13:59:21;;;;;;;123.57;61.95;;;;;;;;;;6220598;23;19989;-74
2022/01/31 14:01:48;;;;;;;126.97;64.13;;;;;;;;;;6190978;23;20019;-75
2022/01/31 14:04:37;;;;;;;136.38;65.78;;;;;;;;;;6182401;23;19992;-75
2022/01/31 14:07:27;;;;;;;115.35;56.30;;;;;;;;;;6129597;23;20091;-75
2022/01/31 14:10:17;;;;;;;119.57;60.10;;;;;;;;;;6106852;23;20299;-75
2022/01/31 14:12:55;;;;;;;135.30;63.80;;;;;;;;;;6124786;23;20060;-74
2022/01/31 14:15:25;;;;;;;122.45;62.25;;;;;;;;;;6156769;23;20041;-75
2022/01/31 14:17:52;;;;;;;117.30;55.90;;;;;;;;;;6154388;23;20360;-75
2022/01/31 14:20:22;;;;;;;113.88;56.65;;;;;;;;;;6133902;23;20395;-75
2022/01/31 14:23:13;;;;;;;133.18;64.15;;;;;;;;;;6012998;23;20009;-75
2022/01/31 14:26:05;;;;;;;127.82;66.03;;;;;;;;;;6155418;23;20038;-75
2022/01/31 14:28:45;;;;;;;138.63;71.22;;;;;;;;;;6128684;23;20000;-75
2022/01/31 14:31:14;;;;;;;144.13;70.77;;;;;;;;;;6175810;23;20257;-75
2022/01/31 14:33:53;;;;;;;129.70;66.07;;;;;;;;;;6191477;23;20012;-75
2022/01/31 14:36:54;;;;;;;151.68;71.22;;;;;;;;;;6222185;23;20023;-75
2022/01/31 14:47:51;;;;;;;144.73;67.57;;;;;;;;;;6254063;23;20044;-80
2022/01/31 14:50:18;;;;;;;140.35;73.90;;;;;;;;;;6252692;23;19988;-80
2022/01/31 14:52:45;;;;;;;136.45;67.53;;;;;;;;;;6188500;23;20085;-80
2022/01/31 14:55:16;;;;;;;136.60;68.07;;;;;;;;;;6255341;23;20306;-81
2022/01/31 14:57:42;;;;;;;;;;;;;;;;;;6203673;23;20003;-80
2022/01/31 15:00:10;;;;;;;135.63;68.68;;;;;;;;;;6255326;23;19931;-80
2022/01/31 15:02:37;;;;;;;137.70;67.10;;;;;;;;;;6254089;23;20082;-80
2022/01/31 15:05:07;;;;;;;141.70;67.53;;;;;;;;;;6254915;23;19992;-80
2022/01/31 15:07:34;;;;;;;123.78;56.47;;;;;;;;;;6228009;23;20027;-80
2022/01/31 15:10:00;;;;;;;129.35;63.45;;;;;;;;;;6227796;23;20051;-80
2022/01/31 15:12:44;;;;;;;124.60;66.60;;;;;;;;;;6199012;23;20000;-74
2022/01/31 15:15:16;;;;;;;120.85;55.17;;;;;;;;;;6022930;23;20028;-80
2022/01/31 15:17:52;;;;;;;123.68;63.20;;;;;;;;;;6240834;23;20008;-75
2022/01/31 15:20:34;;;;;;;126.60;64.88;;;;;;;;;;6189085;23;20390;-75
2022/01/31 15:23:37;;;;;;;119.53;58.95;;;;;;;;;;6207522;23;20066;-75
2022/01/31 15:26:35;;;;;;;132.00;69.97;;;;;;;;;;6193025;23;20043;-75
2022/01/31 15:29:26;;;;;;;126.07;69.18;;;;;;;;;;6184674;23;20302;-76
2022/01/31 15:32:05;;;;;;;136.57;73.90;;;;;;;;;;6171380;23;20411;-75
2022/01/31 15:34:38;;;;;;;144.77;70.75;;;;;;;;;;6198687;23;20016;-75
2022/01/31 15:40:08;;;;;;;149.70;68.93;;;;;;;;;;6051615;23;20012;-80
2022/01/31 15:42:34;;;;;;;133.63;70.32;;;;;;;;;;6254797;23;20004;-80
2022/01/31 15:45:03;;;;;;;144.05;69.05;;;;;;;;;;6254265;23;20046;-80
2022/01/31 15:47:30;;;;;;;151.57;71.55;;;;;;;;;;6227741;23;20046;-80
2022/01/31 15:49:56;;;;;;;136.95;63.72;;;;;;;;;;6253617;23;20440;-79
2022/01/31 15:52:22;;;;;;;125.70;58.85;;;;;;;;;;6251945;23;20386;-80
2022/01/31 15:54:48;;;;;;;147.90;70.18;;;;;;;;;;6250297;23;19992;-79
2022/01/31 15:57:19;;;;;;;124.82;61.65;;;;;;;;;;6237779;23;20450;-80
2022/01/31 15:59:45;;;;;;;139.45;67.40;;;;;;;;;;6225896;23;20020;-81